Time;durP1;ratioP1;P1;durP2;ratioP2;P2;SDS_P1;SDS_P2;PMS_P1;PMS_P2;Temp;Humidity;BMP_temperature;BMP_pressure;BME280_temperature;BME280_humidity;BME280_pressure;Samples;Min_cycle;Max_cycle;Signal;HPM_P1;HPM_P2
2022/09/05 00:02:54;;;;;;;;;;;;;;;;;;10460344;28;20284;-64
2022/09/05 00:07:56;;;;;;;;;;;;;;;;;;10444946;28;19975;-65
2022/09/05 00:13:00;;;;;;;;;;;;;;;;;;10462422;28;19931;-65
2022/09/05 00:18:08;;;;;;;;;;;;;;;;;;10459332;28;19924;-65
2022/09/05 00:23:30;;;;;;;;;;;;;;;;;;10459286;28;20330;-65
2022/09/05 00:28:52;;;;;;;;;;;;;;;;;;10460291;28;19928;-65
2022/09/05 00:33:54;;;;;;;;;;;;;;;;;;10461644;28;19925;-64
2022/09/05 00:38:56;;;;;;;;;;;;;;;;;;10459156;28;19932;-65
2022/09/05 00:43:59;;;;;;;;;;;;;;;;;;10461309;28;19931;-65
2022/09/05 00:49:01;;;;;;;;;;;;;;;;;;10458340;28;20295;-65
2022/09/05 00:54:03;;;;;;;;;;;;;;;;;;10459456;28;20017;-65
2022/09/05 00:59:05;;;;;;;;;;;;;;;;;;10438621;28;20376;-65
2022/09/05 01:04:07;;;;;;;;;;;;;;;;;;10460188;28;19955;-65
2022/09/05 01:09:09;;;;;;;;;;;;;;;;;;10460258;28;19929;-64
2022/09/05 01:14:11;;;;;;;;;;;;;;;;;;10458699;28;19925;-65
2022/09/05 01:19:14;;;;;;;;;;;;;;;;;;10456196;28;20394;-64
2022/09/05 01:24:17;;;;;;;;;;;;;;;;;;10459481;28;20330;-65
2022/09/05 01:29:19;;;;;;;;;;;;;;;;;;10458129;28;19932;-64
2022/09/05 01:34:21;;;;;;;;;;;;;;;;;;10458600;28;19924;-64
2022/09/05 01:39:30;;;;;;;;;;;;;;;;;;10456182;28;19924;-65
2022/09/05 01:44:54;;;;;;;;;;;;;;;;;;10458214;28;19928;-65
2022/09/05 01:49:56;;;;;;;;;;;;;;;;;;10458025;28;19925;-65
2022/09/05 01:55:01;;;;;;;;;;;;;;;;;;10456437;28;19924;-65
2022/09/05 02:00:03;;;;;;;;;;;;;;;;;;10455793;28;19932;-65
2022/09/05 02:05:05;;;;;;;;;;;;;;;;;;10458161;28;19925;-65
2022/09/05 02:10:07;;;;;;;;;;;;;;;;;;10455133;28;19925;-65
2022/09/05 02:15:09;;;;;;;;;;;;;;;;;;10457185;28;19928;-65
2022/09/05 02:20:12;;;;;;;;;;;;;;;;;;10455671;28;19955;-64
2022/09/05 02:25:14;;;;;;;;;;;;;;;;;;10456160;28;19924;-65
2022/09/05 02:30:36;;;;;;;;;;;;;;;;;;10457551;28;19932;-65
2022/09/05 02:35:38;;;;;;;;;;;;;;;;;;10452964;28;19936;-65
2022/09/05 02:40:40;;;;;;;;;;;;;;;;;;10456517;28;19924;-65
2022/09/05 02:46:02;;;;;;;;;;;;;;;;;;10457381;28;19925;-65
2022/09/05 02:51:05;;;;;;;;;;;;;;;;;;10456040;28;19925;-65
2022/09/05 02:56:27;;;;;;;;;;;;;;;;;;10454820;28;19978;-65
2022/09/05 03:01:49;;;;;;;;;;;;;;;;;;10457128;28;19925;-65
2022/09/05 03:06:51;;;;;;;;;;;;;;;;;;10462884;28;19931;-64
2022/09/05 03:11:53;;;;;;;;;;;;;;;;;;10446196;28;19932;-65
2022/09/05 03:16:56;;;;;;;;;;;;;;;;;;10462604;28;19932;-64
2022/09/05 03:21:59;;;;;;;;;;;;;;;;;;10461152;28;19925;-64
2022/09/05 03:27:01;;;;;;;;;;;;;;;;;;10464259;28;19932;-64
2022/09/05 03:32:03;;;;;;;;;;;;;;;;;;10462589;28;20307;-64
2022/09/05 03:37:05;;;;;;;;;;;;;;;;;;10463880;28;19925;-65
2022/09/05 03:42:07;;;;;;;;;;;;;;;;;;10461575;28;19924;-64
2022/09/05 03:47:15;;;;;;;;;;;;;;;;;;10464025;28;19975;-64
2022/09/05 03:52:17;;;;;;;;;;;;;;;;;;10444501;28;19925;-64
2022/09/05 03:57:39;;;;;;;;;;;;;;;;;;10447733;28;19975;-65
2022/09/05 04:02:43;;;;;;;;;;;;;;;;;;10460404;28;19932;-64
2022/09/05 04:08:05;;;;;;;;;;;;;;;;;;10462777;28;19925;-64
2022/09/05 04:13:27;;;;;;;;;;;;;;;;;;10461456;28;19950;-65
2022/09/05 04:18:30;;;;;;;;;;;;;;;;;;10461213;28;19928;-65
2022/09/05 04:23:34;;;;;;;;;;;;;;;;;;10460893;28;19947;-64
2022/09/05 04:28:36;;;;;;;;;;;;;;;;;;10458989;28;19924;-64
2022/09/05 04:33:38;;;;;;;;;;;;;;;;;;10461102;28;19932;-64
2022/09/05 04:38:40;;;;;;;;;;;;;;;;;;10461467;28;19924;-64
2022/09/05 04:43:43;;;;;;;;;;;;;;;;;;10459354;28;19925;-65
2022/09/05 04:48:45;;;;;;;;;;;;;;;;;;10459612;28;20390;-65
2022/09/05 04:53:47;;;;;;;;;;;;;;;;;;10460932;28;19925;-64
2022/09/05 04:58:49;;;;;;;;;;;;;;;;;;10459538;28;19929;-65
2022/09/05 05:04:14;;;;;;;;;;;;;;;;;;10419006;28;19925;-65
2022/09/05 05:09:37;;;;;;;;;;;;;;;;;;10431203;28;19955;-64
2022/09/05 05:14:41;;;;;;;;;;;;;;;;;;10460070;28;19931;-64
2022/09/05 05:20:03;;;;;;;;;;;;;;;;;;10456898;28;19932;-64
2022/09/05 05:25:25;;;;;;;;;;;;;;;;;;10458634;28;20330;-65
2022/09/05 05:30:27;;;;;;;;;;;;;;;;;;10456861;28;19924;-64
2022/09/05 05:35:29;;;;;;;;;;;;;;;;;;10459309;28;19925;-64
2022/09/05 05:40:31;;;;;;;;;;;;;;;;;;10456844;28;19925;-64
2022/09/05 05:45:40;;;;;;;;;;;;;;;;;;10457528;28;19925;-64
2022/09/05 05:50:43;;;;;;;;;;;;;;;;;;10458701;28;19970;-64
2022/09/05 05:55:45;;;;;;;;;;;;;;;;;;10457819;28;20383;-64
2022/09/05 06:00:53;;;;;;;;;;;;;;;;;;10457237;28;19924;-65
2022/09/05 06:05:55;;;;;;;;;;;;;;;;;;10457772;28;19925;-65
2022/09/05 06:10:57;;;;;;;;;;;;;;;;;;10457376;28;19928;-65
2022/09/05 06:16:19;;;;;;;;;;;;;;;;;;10454424;28;20334;-64
2022/09/05 06:21:21;;;;;;;;;;;;;;;;;;10455769;28;19972;-65
2022/09/05 06:26:44;;;;;;;;;;;;;;;;;;10458331;28;19975;-65
2022/09/05 06:31:46;;;;;;;;;;;;;;;;;;10455688;28;19932;-65
2022/09/05 06:36:48;;;;;;;;;;;;;;;;;;10457287;28;20302;-65
2022/09/05 06:41:50;;;;;;;;;;;;;;;;;;10454891;28;19925;-66
2022/09/05 06:46:53;;;;;;;;;;;;;;;;;;10457132;28;19939;-65
2022/09/05 06:52:15;;;;;;;;;;;;;;;;;;10455041;28;19925;-65
2022/09/05 06:57:29;;;;;;;;;;;;;;;;;;10455355;28;20019;-66
2022/09/05 07:02:33;;;;;;;;;;;;;;;;;;10454167;28;20039;-65
2022/09/05 07:07:55;;;;;;;;;;;;;;;;;;10456793;28;19924;-65
2022/09/05 07:12:57;;;;;;;;;;;;;;;;;;10456269;28;19925;-65
2022/09/05 07:17:59;;;;;;;;;;;;;;;;;;10464650;22;19956;-65
2022/09/05 07:23:17;;;;;;;;;;;;;;;;;;10454871;28;20371;-65
2022/09/05 07:28:39;;;;;;;;;;;;;;;;;;10465476;28;19932;-66
2022/09/05 07:33:41;;;;;;;;;;;;;;;;;;10497740;28;19928;-66
2022/09/05 07:38:43;;;;;;;;;;;;;;;;;;10496945;28;20310;-65
2022/09/05 07:43:56;;;;;;;;;;;;;;;;;;10489269;28;19931;-65
2022/09/05 07:48:59;;;;;;;;;;;;;;;;;;10462053;28;19925;-66
2022/09/05 07:54:01;;;;;;;;;;;;;;;;;;10462778;28;20291;-66
2022/09/05 07:59:23;;;;;;;;;;;;;;;;;;10462458;28;20349;-65
2022/09/05 08:04:26;;;;;;;;;;;;;;;;;;10462413;28;19932;-66
2022/09/05 08:09:28;;;;;;;;;;;;;;;;;;10483065;28;20272;-66
2022/09/05 08:14:51;;;;;;;;;;;;;;;;;;10489258;28;20171;-66
2022/09/05 08:19:54;;;;;;;;;;;;;;;;;;10465004;28;19932;-66
2022/09/05 08:24:58;;;;;;;;;;;;;;;;;;10477529;28;20264;-66
2022/09/05 08:30:00;;;;;;;;;;;;;;;;;;10502693;28;19924;-66
2022/09/05 08:35:23;;;;;;;;;;;;;;;;;;10502516;28;19932;-66
2022/09/05 08:40:25;;;;;;;;;;;;;;;;;;10487591;28;19924;-66
2022/09/05 08:45:27;;;;;;;;;;;;;;;;;;10454449;28;20354;-66
2022/09/05 08:50:49;;;;;;;;;;;;;;;;;;10454867;28;19936;-66
2022/09/05 08:55:51;;;;;;;;;;;;;;;;;;10452732;28;19929;-66
2022/09/05 09:00:54;;;;;;;;;;;;;;;;;;10454299;28;19936;-66
2022/09/05 09:06:01;;;;;;;;;;;;;;;;;;10453365;28;19960;-66
2022/09/05 09:11:15;;;;;;;;;;;;;;;;;;10454438;28;19955;-66
2022/09/05 09:16:18;;;;;;;;;;;;;;;;;;10452967;28;19936;-66
2022/09/05 09:21:20;;;;;;;;;;;;;;;;;;10452942;28;19929;-66
2022/09/05 09:26:22;;;;;;;;;;;;;;;;;;10452683;28;19929;-66
2022/09/05 09:31:25;;;;;;;;;;;;;;;;;;10451880;28;20295;-66
2022/09/05 09:36:27;;;;;;;;;;;;;;;;;;10451794;28;20461;-66
2022/09/05 09:41:29;;;;;;;;;;;;;;;;;;10451161;28;19931;-66
2022/09/05 09:46:33;;;;;;;;;;;;;;;;;;10451243;28;19933;-66
2022/09/05 09:51:39;;;;;;;;;;;;;;;;;;10451772;28;20351;-66
2022/09/05 09:56:42;;;;;;;;;;;;;;;;;;10451580;28;19940;-67
2022/09/05 10:01:50;;;;;;;;;;;;;;;;;;10450611;28;20705;-66
2022/09/05 10:06:52;;;;;;;;;;;;;;;;;;10451334;28;19974;-67
2022/09/05 10:12:15;;;;;;;;;;;;;;;;;;10451106;28;19982;-67
2022/09/05 10:17:17;;;;;;;;;;;;;;;;;;10450733;28;19971;-67
2022/09/05 10:22:19;;;;;;;;;;;;;;;;;;10450067;28;20311;-67
2022/09/05 10:27:38;;;;;;;;;;;;;;;;;;10449212;28;19929;-67
2022/09/05 10:32:45;;;;;;;;;;;;;;;;;;10452413;28;19930;-67
2022/09/05 10:38:07;;;;;;;;;;;;;;;;;;10449874;28;20319;-67
2022/09/05 10:43:11;;;;;;;;;;;;;;;;;;10481650;28;20311;-67
2022/09/05 10:48:13;;;;;;;;;;;;;;;;;;10452360;28;19925;-67
2022/09/05 10:53:15;;;;;;;;;;;;;;;;;;10445527;28;19925;-66
2022/09/05 10:58:17;;;;;;;;;;;;;;;;;;10449482;28;19928;-67
2022/09/05 11:03:24;;;;;;;;;;;;;;;;;;10456087;28;20317;-67
2022/09/05 11:08:26;;;;;;;;;;;;;;;;;;10456865;28;19925;-67
2022/09/05 11:13:28;;;;;;;;;;;;;;;;;;10453056;28;19929;-67
2022/09/05 11:18:32;;;;;;;;;;;;;;;;;;10449148;28;19944;-67
2022/09/05 11:23:54;;;;;;;;;;;;;;;;;;10449132;28;20359;-67
2022/09/05 11:28:58;;;;;;;;;;;;;;;;;;10457085;28;19935;-67
2022/09/05 11:34:01;;;;;;;;;;;;;;;;;;10457307;28;19935;-68
2022/09/05 11:39:25;;;;;;;;;;;;;;;;;;10456920;28;20419;-68
2022/09/05 11:44:47;;;;;;;;;;;;;;;;;;10456775;28;19929;-68
2022/09/05 11:49:49;;;;;;;;;;;;;;;;;;10455184;28;20386;-68
2022/09/05 11:54:53;;;;;;;;;;;;;;;;;;10455626;28;20413;-68
2022/09/05 11:59:55;;;;;;;;;;;;;;;;;;10455932;28;19936;-68
2022/09/05 12:05:17;;;;;;;;;;;;;;;;;;10455335;28;20456;-68
2022/09/05 12:10:39;;;;;;;;;;;;;;;;;;10456466;28;19936;-68
2022/09/05 12:15:48;;;;;;;;;;;;;;;;;;10455194;28;19929;-68
2022/09/05 12:21:11;;;;;;;;;;;;;;;;;;10455329;28;19929;-68
2022/09/05 12:26:20;;;;;;;;;;;;;;;;;;10469052;28;19978;-68
2022/09/05 12:31:43;;;;;;;;;;;;;;;;;;10493550;28;20044;-68
2022/09/05 12:37:06;;;;;;;;;;;;;;;;;;10466738;28;19939;-68
2022/09/05 12:42:28;;;;;;;;;;;;;;;;;;10495441;28;19929;-68
2022/09/05 12:47:40;;;;;;;;;;;;;;;;;;10495833;28;20020;-67
2022/09/05 12:52:43;;;;;;;;;;;;;;;;;;10479713;28;19932;-68
2022/09/05 12:57:45;;;;;;;;;;;;;;;;;;10473099;28;19929;-68
2022/09/05 13:03:07;;;;;;;;;;;;;;;;;;10478928;28;19928;-68
2022/09/05 13:08:29;;;;;;;;;;;;;;;;;;10455457;28;19928;-68
2022/09/05 13:13:31;;;;;;;;;;;;;;;;;;10452830;28;19933;-68
2022/09/05 13:18:55;;;;;;;;;;;;;;;;;;10452955;28;19929;-68
2022/09/05 13:23:57;;;;;;;;;;;;;;;;;;10455836;28;19925;-68
2022/09/05 13:29:00;;;;;;;;;;;;;;;;;;10459718;28;19932;-68
2022/09/05 13:34:11;;;;;;;;;;;;;;;;;;10458925;28;19974;-67
2022/09/05 13:39:33;;;;;;;;;;;;;;;;;;10459396;28;19924;-68
2022/09/05 13:44:35;;;;;;;;;;;;;;;;;;10458511;28;20318;-67
2022/09/05 13:49:38;;;;;;;;;;;;;;;;;;10455708;28;19925;-68
2022/09/05 13:54:40;;;;;;;;;;;;;;;;;;10459005;28;19925;-68
2022/09/05 13:59:42;;;;;;;;;;;;;;;;;;10457826;28;20368;-68
2022/09/05 14:04:44;;;;;;;;;;;;;;;;;;10457881;28;20376;-67
2022/09/05 14:10:06;;;;;;;;;;;;;;;;;;10457458;28;19975;-68
2022/09/05 14:15:10;;;;;;;;;;;;;;;;;;10457733;28;19925;-68
2022/09/05 14:25:36;;;;;;;;;;;;;;;;;;10457094;28;19924;-68
2022/09/05 14:30:38;;;;;;;;;;;;;;;;;;10457672;28;19924;-68
2022/09/05 14:36:00;;;;;;;;;;;;;;;;;;10455328;28;20382;-68
2022/09/05 14:41:22;;;;;;;;;;;;;;;;;;10455769;28;20002;-67
2022/09/05 14:46:24;;;;;;;;;;;;;;;;;;10456983;28;19935;-68
2022/09/05 14:51:29;;;;;;;;;;;;;;;;;;10457255;28;19940;-67
2022/09/05 14:56:31;;;;;;;;;;;;;;;;;;10457147;28;19947;-67
2022/09/05 15:01:53;;;;;;;;;;;;;;;;;;10475590;28;19975;-67
2022/09/05 15:07:15;;;;;;;;;;;;;;;;;;10500258;28;20390;-67
2022/09/05 15:12:17;;;;;;;;;;;;;;;;;;10503571;28;19924;-67
2022/09/05 15:17:35;;;;;;;;;;;;;;;;;;10492429;28;20011;-67
2022/09/05 15:22:37;;;;;;;;;;;;;;;;;;10462830;28;19994;-67
2022/09/05 15:27:39;;;;;;;;;;;;;;;;;;10465062;28;19924;-67
2022/09/05 15:32:42;;;;;;;;;;;;;;;;;;10463701;28;20283;-67
2022/09/05 15:37:48;;;;;;;;;;;;;;;;;;10476929;28;19931;-67
2022/09/05 15:42:50;;;;;;;;;;;;;;;;;;10463240;28;20262;-67
2022/09/05 15:47:55;;;;;;;;;;;;;;;;;;10463737;28;19937;-67
2022/09/05 15:52:57;;;;;;;;;;;;;;;;;;10494085;28;19931;-67
2022/09/05 15:57:59;;;;;;;;;;;;;;;;;;10459216;28;19925;-67
2022/09/05 16:03:01;;;;;;;;;;;;;;;;;;10425945;28;20023;-67
2022/09/05 16:08:03;;;;;;;;;;;;;;;;;;10455850;28;19940;-67
2022/09/05 16:13:25;;;;;;;;;;;;;;;;;;10460997;28;19925;-67
2022/09/05 16:18:48;;;;;;;;;;;;;;;;;;10497117;28;20342;-67
2022/09/05 16:24:10;;;;;;;;;;;;;;;;;;10462200;28;19948;-67
2022/09/05 16:29:12;;;;;;;;;;;;;;;;;;10478034;28;19928;-67
2022/09/05 16:34:14;;;;;;;;;;;;;;;;;;10493677;28;19931;-67
2022/09/05 16:39:16;;;;;;;;;;;;;;;;;;10482893;28;19931;-67
2022/09/05 16:44:18;;;;;;;;;;;;;;;;;;10463542;28;19932;-67
2022/09/05 16:49:20;;;;;;;;;;;;;;;;;;10461374;28;19924;-67
2022/09/05 16:54:39;;;;;;;;;;;;;;;;;;10448031;28;19925;-67
2022/09/05 16:59:42;;;;;;;;;;;;;;;;;;10419597;28;19925;-67
2022/09/05 17:04:44;;;;;;;;;;;;;;;;;;10419486;28;20015;-67
2022/09/05 17:10:04;;;;;;;;;;;;;;;;;;10419403;28;19925;-67
2022/09/05 17:15:06;;;;;;;;;;;;;;;;;;10419261;28;19925;-67
2022/09/05 17:20:09;;;;;;;;;;;;;;;;;;10418888;28;19925;-67
2022/09/05 17:25:11;;;;;;;;;;;;;;;;;;10417189;28;20279;-67
2022/09/05 17:30:34;;;;;;;;;;;;;;;;;;10419095;28;19933;-67
2022/09/05 17:35:57;;;;;;;;;;;;;;;;;;10417762;28;19932;-67
2022/09/05 17:40:59;;;;;;;;;;;;;;;;;;10418045;28;19925;-67
2022/09/05 17:46:08;;;;;;;;;;;;;;;;;;10508563;22;19979;-62
2022/09/05 17:51:11;;;;;;;;;;;;;;;;;;10451943;28;19925;-62
2022/09/05 17:56:13;;;;;;;;;;;;;;;;;;10451152;28;19925;-62
2022/09/05 18:01:16;;;;;;;;;;;;;;;;;;10449679;28;19929;-62
2022/09/05 18:06:18;;;;;;;;;;;;;;;;;;10433101;28;20043;-62
2022/09/05 18:11:20;;;;;;;;;;;;;;;;;;10449538;28;19925;-62
2022/09/05 18:16:26;;;;;;;;;;;;;;;;;;10451055;28;19929;-62
2022/09/05 18:21:28;;;;;;;;;;;;;;;;;;10447653;28;19968;-61
2022/09/05 18:26:30;;;;;;;;;;;;;;;;;;10449812;28;19925;-61
2022/09/05 18:31:33;;;;;;;;;;;;;;;;;;10450356;28;19932;-61
2022/09/05 18:36:42;;;;;;;;;;;;;;;;;;10450182;28;19932;-61
2022/09/05 18:41:45;;;;;;;;;;;;;;;;;;10449168;28;19932;-61
2022/09/05 18:46:47;;;;;;;;;;;;;;;;;;10445773;28;19929;-61
2022/09/05 18:51:49;;;;;;;;;;;;;;;;;;10448975;28;20261;-61
2022/09/05 18:56:52;;;;;;;;;;;;;;;;;;10422714;28;19925;-61
2022/09/05 19:02:14;;;;;;;;;;;;;;;;;;10419686;28;19929;-61
2022/09/05 19:07:35;;;;;;;;;;;;;;;;;;10421612;28;19932;-61
2022/09/05 19:12:37;;;;;;;;;;;;;;;;;;10421405;28;19932;-61
2022/09/05 19:17:47;;;;;;;;;;;;;;;;;;10419771;28;19979;-61
2022/09/05 19:22:49;;;;;;;;;;;;;;;;;;10418583;28;19931;-61
2022/09/05 19:28:11;;;;;;;;;;;;;;;;;;10420192;28;20411;-61
2022/09/05 19:33:33;;;;;;;;;;;;;;;;;;10419925;28;20319;-61
2022/09/05 19:38:55;;;;;;;;;;;;;;;;;;10403625;28;19979;-61
2022/09/05 19:44:18;;;;;;;;;;;;;;;;;;10419570;28;19929;-61
2022/09/05 19:49:40;;;;;;;;;;;;;;;;;;10420090;28;19925;-61
2022/09/05 19:54:42;;;;;;;;;;;;;;;;;;10417562;28;19925;-61
2022/09/05 19:59:44;;;;;;;;;;;;;;;;;;10399769;28;19925;-61
2022/09/05 20:04:47;;;;;;;;;;;;;;;;;;10418654;28;19936;-61
2022/09/05 20:09:51;;;;;;;;;;;;;;;;;;10416298;28;20441;-61
2022/09/05 20:14:53;;;;;;;;;;;;;;;;;;10418449;28;19932;-60
2022/09/05 20:19:55;;;;;;;;;;;;;;;;;;10416700;28;19925;-60
2022/09/05 20:24:57;;;;;;;;;;;;;;;;;;10418697;28;19931;-61
2022/09/05 20:30:00;;;;;;;;;;;;;;;;;;10414648;28;19925;-61
2022/09/05 20:35:02;;;;;;;;;;;;;;;;;;10417531;28;20391;-61
2022/09/05 20:40:24;;;;;;;;;;;;;;;;;;10415927;28;19925;-61
2022/09/05 20:45:46;;;;;;;;;;;;;;;;;;10416949;28;19936;-61
2022/09/05 20:50:54;;;;;;;;;;;;;;;;;;10412976;28;19971;-61
2022/09/05 20:56:17;;;;;;;;;;;;;;;;;;10416690;28;19929;-60
2022/09/05 21:01:20;;;;;;;;;;;;;;;;;;10415693;28;19926;-60
2022/09/05 21:06:23;;;;;;;;;;;;;;;;;;10414917;28;20000;-60
2022/09/05 21:11:26;;;;;;;;;;;;;;;;;;10415972;28;19925;-60
2022/09/05 21:16:28;;;;;;;;;;;;;;;;;;10416452;28;19935;-60
2022/09/05 21:21:30;;;;;;;;;;;;;;;;;;10414470;28;20015;-60
2022/09/05 21:26:32;;;;;;;;;;;;;;;;;;10416517;28;19925;-60
2022/09/05 21:31:34;;;;;;;;;;;;;;;;;;10414650;28;19925;-61
2022/09/05 21:36:36;;;;;;;;;;;;;;;;;;10406331;28;19929;-60
2022/09/05 21:41:39;;;;;;;;;;;;;;;;;;10408836;28;19932;-61
2022/09/05 21:46:42;;;;;;;;;;;;;;;;;;10415562;28;19925;-61
2022/09/05 21:52:04;;;;;;;;;;;;;;;;;;10415839;28;19925;-60
2022/09/05 21:57:07;;;;;;;;;;;;;;;;;;10413113;28;20317;-60
2022/09/05 22:02:30;;;;;;;;;;;;;;;;;;10412977;28;19925;-60
2022/09/05 22:07:34;;;;;;;;;;;;;;;;;;10397564;28;19932;-60
2022/09/05 22:12:37;;;;;;;;;;;;;;;;;;10414733;28;19936;-60
2022/09/05 22:17:42;;;;;;;;;;;;;;;;;;10414822;28;20368;-60
2022/09/05 22:22:44;;;;;;;;;;;;;;;;;;10412412;28;19936;-60
2022/09/05 22:27:56;;;;;;;;;;;;;;;;;;10413035;28;20097;-60
2022/09/05 22:32:58;;;;;;;;;;;;;;;;;;10422811;28;19940;-60
2022/09/05 22:38:00;;;;;;;;;;;;;;;;;;10422765;28;19925;-60
2022/09/05 22:43:03;;;;;;;;;;;;;;;;;;10421615;28;19925;-60
2022/09/05 22:48:05;;;;;;;;;;;;;;;;;;10420895;28;19932;-60
2022/09/05 22:53:07;;;;;;;;;;;;;;;;;;10422135;28;19929;-60
2022/09/05 22:58:09;;;;;;;;;;;;;;;;;;10403523;28;20008;-60
2022/09/05 23:03:11;;;;;;;;;;;;;;;;;;10418557;28;19933;-60
2022/09/05 23:08:13;;;;;;;;;;;;;;;;;;10421601;28;19925;-60
2022/09/05 23:13:15;;;;;;;;;;;;;;;;;;10419984;28;19948;-60
2022/09/05 23:18:17;;;;;;;;;;;;;;;;;;10402120;28;20289;-60
2022/09/05 23:23:20;;;;;;;;;;;;;;;;;;10419610;28;20371;-60
2022/09/05 23:28:22;;;;;;;;;;;;;;;;;;10418396;28;20415;-60
2022/09/05 23:33:24;;;;;;;;;;;;;;;;;;10420686;28;19925;-60
2022/09/05 23:38:26;;;;;;;;;;;;;;;;;;10418777;28;19925;-60
2022/09/05 23:43:28;;;;;;;;;;;;;;;;;;10417964;28;19925;-60
2022/09/05 23:48:30;;;;;;;;;;;;;;;;;;10419289;28;19948;-60
2022/09/05 23:53:32;;;;;;;;;;;;;;;;;;10419285;28;20283;-60
2022/09/05 23:58:34;;;;;;;;;;;;;;;;;;10418108;28;20368;-60
